sensor_id;sensor_type;location;lat;lon;timestamp;temperature;humidity
17992;DHT22;9121;50.926;5.340;2023-06-22T00:01:17;23.00;99.90
17992;DHT22;9121;50.926;5.340;2023-06-22T00:03:44;22.90;99.90
17992;DHT22;9121;50.926;5.340;2023-06-22T00:06:11;22.90;99.90
17992;DHT22;9121;50.926;5.340;2023-06-22T00:08:38;22.70;99.90
17992;DHT22;9121;50.926;5.340;2023-06-22T00:11:06;22.80;99.90
17992;DHT22;9121;50.926;5.340;2023-06-22T00:13:33;22.80;99.90
17992;DHT22;9121;50.926;5.340;2023-06-22T00:16:01;22.90;99.90
17992;DHT22;9121;50.926;5.340;2023-06-22T00:18:27;22.90;99.90
17992;DHT22;9121;50.926;5.340;2023-06-22T00:21:21;22.80;99.90
17992;DHT22;9121;50.926;5.340;2023-06-22T00:23:48;22.80;99.90
17992;DHT22;9121;50.926;5.340;2023-06-22T00:26:16;22.90;99.90
17992;DHT22;9121;50.926;5.340;2023-06-22T00:28:43;22.80;99.90
17992;DHT22;9121;50.926;5.340;2023-06-22T00:31:10;22.80;99.90
17992;DHT22;9121;50.926;5.340;2023-06-22T00:33:37;22.80;99.90
17992;DHT22;9121;50.926;5.340;2023-06-22T00:36:05;22.80;99.90
17992;DHT22;9121;50.926;5.340;2023-06-22T00:38:33;22.70;99.90
17992;DHT22;9121;50.926;5.340;2023-06-22T00:41:00;22.60;99.90
17992;DHT22;9121;50.926;5.340;2023-06-22T00:43:28;22.60;99.90
17992;DHT22;9121;50.926;5.340;2023-06-22T00:45:55;22.50;99.90
17992;DHT22;9121;50.926;5.340;2023-06-22T00:48:23;22.70;99.90
17992;DHT22;9121;50.926;5.340;2023-06-22T00:50:50;22.80;99.90
17992;DHT22;9121;50.926;5.340;2023-06-22T00:53:19;22.80;99.90
17992;DHT22;9121;50.926;5.340;2023-06-22T00:55:47;22.80;99.90
17992;DHT22;9121;50.926;5.340;2023-06-22T00:58:17;22.80;99.90
17992;DHT22;9121;50.926;5.340;2023-06-22T01:00:49;22.70;99.90
17992;DHT22;9121;50.926;5.340;2023-06-22T01:03:16;22.70;99.90
17992;DHT22;9121;50.926;5.340;2023-06-22T01:05:43;22.70;99.90
17992;DHT22;9121;50.926;5.340;2023-06-22T01:08:29;22.70;99.90
17992;DHT22;9121;50.926;5.340;2023-06-22T01:11:03;22.70;99.90
17992;DHT22;9121;50.926;5.340;2023-06-22T01:13:37;22.80;99.90
17992;DHT22;9121;50.926;5.340;2023-06-22T01:16:12;22.70;99.90
17992;DHT22;9121;50.926;5.340;2023-06-22T01:18:42;22.70;99.90
17992;DHT22;9121;50.926;5.340;2023-06-22T01:21:12;22.60;99.90
17992;DHT22;9121;50.926;5.340;2023-06-22T01:23:53;22.60;99.90
17992;DHT22;9121;50.926;5.340;2023-06-22T01:26:28;22.50;99.90
17992;DHT22;9121;50.926;5.340;2023-06-22T01:28:59;22.40;99.90
17992;DHT22;9121;50.926;5.340;2023-06-22T01:31:27;22.40;99.90
17992;DHT22;9121;50.926;5.340;2023-06-22T01:33:59;22.30;99.90
17992;DHT22;9121;50.926;5.340;2023-06-22T01:36:27;22.30;99.90
17992;DHT22;9121;50.926;5.340;2023-06-22T01:38:57;22.30;99.90
17992;DHT22;9121;50.926;5.340;2023-06-22T01:41:26;22.30;99.90
17992;DHT22;9121;50.926;5.340;2023-06-22T01:43:56;22.30;99.90
17992;DHT22;9121;50.926;5.340;2023-06-22T01:46:24;22.30;99.90
17992;DHT22;9121;50.926;5.340;2023-06-22T01:48:51;22.40;99.90
17992;DHT22;9121;50.926;5.340;2023-06-22T01:51:19;22.40;99.90
17992;DHT22;9121;50.926;5.340;2023-06-22T01:53:46;22.40;99.90
17992;DHT22;9121;50.926;5.340;2023-06-22T01:56:15;22.40;99.90
17992;DHT22;9121;50.926;5.340;2023-06-22T01:58:48;22.40;99.90
17992;DHT22;9121;50.926;5.340;2023-06-22T02:01:22;22.30;99.90
17992;DHT22;9121;50.926;5.340;2023-06-22T02:03:58;22.30;99.90
17992;DHT22;9121;50.926;5.340;2023-06-22T02:06:33;22.30;99.90
17992;DHT22;9121;50.926;5.340;2023-06-22T02:09:07;22.40;99.90
17992;DHT22;9121;50.926;5.340;2023-06-22T02:11:37;22.40;99.90
17992;DHT22;9121;50.926;5.340;2023-06-22T02:14:05;22.50;99.90
17992;DHT22;9121;50.926;5.340;2023-06-22T02:16:35;22.50;99.90
17992;DHT22;9121;50.926;5.340;2023-06-22T02:19:03;22.50;99.90
17992;DHT22;9121;50.926;5.340;2023-06-22T02:21:32;22.60;99.90
17992;DHT22;9121;50.926;5.340;2023-06-22T02:23:59;22.60;99.90
17992;DHT22;9121;50.926;5.340;2023-06-22T02:26:26;22.60;99.90
17992;DHT22;9121;50.926;5.340;2023-06-22T02:28:54;22.50;99.90
17992;DHT22;9121;50.926;5.340;2023-06-22T02:31:21;22.60;99.90
17992;DHT22;9121;50.926;5.340;2023-06-22T02:33:49;22.50;99.90
17992;DHT22;9121;50.926;5.340;2023-06-22T02:36:16;22.50;99.90
17992;DHT22;9121;50.926;5.340;2023-06-22T02:38:48;22.40;99.90
17992;DHT22;9121;50.926;5.340;2023-06-22T02:41:15;22.40;99.90
17992;DHT22;9121;50.926;5.340;2023-06-22T02:43:44;22.30;99.90
17992;DHT22;9121;50.926;5.340;2023-06-22T02:46:12;22.20;99.90
17992;DHT22;9121;50.926;5.340;2023-06-22T02:48:39;22.10;99.90
17992;DHT22;9121;50.926;5.340;2023-06-22T02:51:08;22.10;99.90
17992;DHT22;9121;50.926;5.340;2023-06-22T02:53:35;22.00;99.90
17992;DHT22;9121;50.926;5.340;2023-06-22T02:56:02;22.00;99.90
17992;DHT22;9121;50.926;5.340;2023-06-22T02:58:31;22.00;99.90
17992;DHT22;9121;50.926;5.340;2023-06-22T03:00:58;21.90;99.90
17992;DHT22;9121;50.926;5.340;2023-06-22T03:03:30;21.90;99.90
17992;DHT22;9121;50.926;5.340;2023-06-22T03:05:57;21.90;99.90
17992;DHT22;9121;50.926;5.340;2023-06-22T03:08:28;21.70;99.90
17992;DHT22;9121;50.926;5.340;2023-06-22T03:10:55;21.60;99.90
17992;DHT22;9121;50.926;5.340;2023-06-22T03:13:23;21.60;99.90
17992;DHT22;9121;50.926;5.340;2023-06-22T03:15:50;21.50;99.90
17992;DHT22;9121;50.926;5.340;2023-06-22T03:18:18;21.50;99.90
17992;DHT22;9121;50.926;5.340;2023-06-22T03:20:45;21.50;99.90
17992;DHT22;9121;50.926;5.340;2023-06-22T03:23:12;21.50;99.90
17992;DHT22;9121;50.926;5.340;2023-06-22T03:25:42;21.60;99.90
17992;DHT22;9121;50.926;5.340;2023-06-22T03:28:10;21.60;99.90
17992;DHT22;9121;50.926;5.340;2023-06-22T03:30:37;21.50;99.90
17992;DHT22;9121;50.926;5.340;2023-06-22T03:33:04;21.60;99.90
17992;DHT22;9121;50.926;5.340;2023-06-22T03:35:31;21.60;99.90
17992;DHT22;9121;50.926;5.340;2023-06-22T03:37:58;21.60;99.90
17992;DHT22;9121;50.926;5.340;2023-06-22T03:40:25;21.60;99.90
17992;DHT22;9121;50.926;5.340;2023-06-22T03:42:53;21.70;99.90
17992;DHT22;9121;50.926;5.340;2023-06-22T03:45:20;21.70;99.90
17992;DHT22;9121;50.926;5.340;2023-06-22T03:47:47;21.70;99.90
17992;DHT22;9121;50.926;5.340;2023-06-22T03:50:14;21.80;99.90
17992;DHT22;9121;50.926;5.340;2023-06-22T03:52:41;21.70;99.90
17992;DHT22;9121;50.926;5.340;2023-06-22T03:55:08;21.70;99.90
17992;DHT22;9121;50.926;5.340;2023-06-22T03:57:35;21.60;99.90
17992;DHT22;9121;50.926;5.340;2023-06-22T04:00:05;21.70;99.90
17992;DHT22;9121;50.926;5.340;2023-06-22T04:02:33;21.70;99.90
17992;DHT22;9121;50.926;5.340;2023-06-22T04:05:00;21.70;99.90
17992;DHT22;9121;50.926;5.340;2023-06-22T04:07:27;21.70;99.90
17992;DHT22;9121;50.926;5.340;2023-06-22T04:09:54;21.90;99.90
17992;DHT22;9121;50.926;5.340;2023-06-22T04:12:21;21.90;99.90
17992;DHT22;9121;50.926;5.340;2023-06-22T04:14:48;21.90;99.90
17992;DHT22;9121;50.926;5.340;2023-06-22T04:17:17;21.90;99.90
17992;DHT22;9121;50.926;5.340;2023-06-22T04:19:44;21.90;99.90
17992;DHT22;9121;50.926;5.340;2023-06-22T04:22:11;22.00;99.90
17992;DHT22;9121;50.926;5.340;2023-06-22T04:24:38;22.00;99.90
17992;DHT22;9121;50.926;5.340;2023-06-22T04:27:05;22.10;99.90
17992;DHT22;9121;50.926;5.340;2023-06-22T04:29:32;22.00;99.90
17992;DHT22;9121;50.926;5.340;2023-06-22T04:32:00;22.00;99.90
17992;DHT22;9121;50.926;5.340;2023-06-22T04:34:30;21.90;99.90
17992;DHT22;9121;50.926;5.340;2023-06-22T04:36:57;21.90;99.90
17992;DHT22;9121;50.926;5.340;2023-06-22T04:39:24;22.00;99.90
17992;DHT22;9121;50.926;5.340;2023-06-22T04:41:52;22.10;99.90
17992;DHT22;9121;50.926;5.340;2023-06-22T04:44:20;22.10;99.90
17992;DHT22;9121;50.926;5.340;2023-06-22T04:46:50;22.00;99.90
17992;DHT22;9121;50.926;5.340;2023-06-22T04:49:20;21.80;99.90
17992;DHT22;9121;50.926;5.340;2023-06-22T04:51:49;21.90;99.90
17992;DHT22;9121;50.926;5.340;2023-06-22T04:54:17;21.80;99.90
17992;DHT22;9121;50.926;5.340;2023-06-22T04:56:44;21.70;99.90
17992;DHT22;9121;50.926;5.340;2023-06-22T04:59:12;21.70;99.90
17992;DHT22;9121;50.926;5.340;2023-06-22T05:01:39;21.70;99.90
17992;DHT22;9121;50.926;5.340;2023-06-22T05:04:06;21.70;99.90
17992;DHT22;9121;50.926;5.340;2023-06-22T05:06:34;21.50;99.90
17992;DHT22;9121;50.926;5.340;2023-06-22T05:09:03;21.40;99.90
17992;DHT22;9121;50.926;5.340;2023-06-22T05:11:31;21.30;99.90
17992;DHT22;9121;50.926;5.340;2023-06-22T05:13:58;21.20;99.90
17992;DHT22;9121;50.926;5.340;2023-06-22T05:16:25;21.10;99.90
17992;DHT22;9121;50.926;5.340;2023-06-22T05:18:52;21.10;99.90
17992;DHT22;9121;50.926;5.340;2023-06-22T05:21:25;21.00;99.90
17992;DHT22;9121;50.926;5.340;2023-06-22T05:23:53;20.90;99.90
17992;DHT22;9121;50.926;5.340;2023-06-22T05:26:21;21.00;99.90
17992;DHT22;9121;50.926;5.340;2023-06-22T05:28:48;21.10;99.90
17992;DHT22;9121;50.926;5.340;2023-06-22T05:31:16;21.10;99.90
17992;DHT22;9121;50.926;5.340;2023-06-22T05:33:45;21.20;99.90
17992;DHT22;9121;50.926;5.340;2023-06-22T05:36:13;21.20;99.90
17992;DHT22;9121;50.926;5.340;2023-06-22T05:38:41;21.10;99.90
17992;DHT22;9121;50.926;5.340;2023-06-22T05:41:08;21.10;99.90
17992;DHT22;9121;50.926;5.340;2023-06-22T05:43:36;21.10;99.90
17992;DHT22;9121;50.926;5.340;2023-06-22T05:46:04;21.20;99.90
17992;DHT22;9121;50.926;5.340;2023-06-22T05:48:31;21.30;99.90
17992;DHT22;9121;50.926;5.340;2023-06-22T05:50:58;21.30;99.90
17992;DHT22;9121;50.926;5.340;2023-06-22T05:53:25;21.20;99.90
17992;DHT22;9121;50.926;5.340;2023-06-22T05:55:52;21.10;99.90
17992;DHT22;9121;50.926;5.340;2023-06-22T05:58:20;21.30;99.90
17992;DHT22;9121;50.926;5.340;2023-06-22T06:00:48;21.50;99.90
17992;DHT22;9121;50.926;5.340;2023-06-22T06:03:15;21.60;99.90
17992;DHT22;9121;50.926;5.340;2023-06-22T06:05:43;21.50;99.90
17992;DHT22;9121;50.926;5.340;2023-06-22T06:08:11;21.50;99.90
17992;DHT22;9121;50.926;5.340;2023-06-22T06:10:38;21.40;99.90
17992;DHT22;9121;50.926;5.340;2023-06-22T06:13:05;21.40;99.90
17992;DHT22;9121;50.926;5.340;2023-06-22T06:15:33;21.60;99.90
17992;DHT22;9121;50.926;5.340;2023-06-22T06:18:02;21.70;99.90
17992;DHT22;9121;50.926;5.340;2023-06-22T06:20:31;21.80;99.90
17992;DHT22;9121;50.926;5.340;2023-06-22T06:22:58;21.90;99.90
17992;DHT22;9121;50.926;5.340;2023-06-22T06:25:25;21.90;99.90
17992;DHT22;9121;50.926;5.340;2023-06-22T06:27:52;21.90;99.90
17992;DHT22;9121;50.926;5.340;2023-06-22T06:30:20;21.90;99.90
17992;DHT22;9121;50.926;5.340;2023-06-22T06:32:47;21.80;99.90
17992;DHT22;9121;50.926;5.340;2023-06-22T06:35:16;21.80;99.90
17992;DHT22;9121;50.926;5.340;2023-06-22T06:37:44;21.80;99.90
17992;DHT22;9121;50.926;5.340;2023-06-22T06:40:12;21.90;99.90
17992;DHT22;9121;50.926;5.340;2023-06-22T06:42:41;21.90;99.90
17992;DHT22;9121;50.926;5.340;2023-06-22T06:45:10;22.00;99.90
17992;DHT22;9121;50.926;5.340;2023-06-22T06:47:37;22.00;99.90
17992;DHT22;9121;50.926;5.340;2023-06-22T06:50:06;22.00;99.90
17992;DHT22;9121;50.926;5.340;2023-06-22T06:52:35;21.90;99.90
17992;DHT22;9121;50.926;5.340;2023-06-22T06:55:02;22.00;99.90
17992;DHT22;9121;50.926;5.340;2023-06-22T06:57:30;22.00;99.90
17992;DHT22;9121;50.926;5.340;2023-06-22T06:59:58;22.00;99.90
17992;DHT22;9121;50.926;5.340;2023-06-22T07:02:26;22.00;99.90
17992;DHT22;9121;50.926;5.340;2023-06-22T07:04:53;21.90;99.90
17992;DHT22;9121;50.926;5.340;2023-06-22T07:07:22;21.80;99.90
17992;DHT22;9121;50.926;5.340;2023-06-22T07:09:50;21.90;99.90
17992;DHT22;9121;50.926;5.340;2023-06-22T07:12:17;22.10;99.90
17992;DHT22;9121;50.926;5.340;2023-06-22T07:14:44;22.00;99.90
17992;DHT22;9121;50.926;5.340;2023-06-22T07:17:11;22.10;99.90
17992;DHT22;9121;50.926;5.340;2023-06-22T07:19:38;22.30;99.90
17992;DHT22;9121;50.926;5.340;2023-06-22T07:22:05;22.50;99.90
17992;DHT22;9121;50.926;5.340;2023-06-22T07:24:32;22.40;99.90
17992;DHT22;9121;50.926;5.340;2023-06-22T07:27:01;22.50;99.90
17992;DHT22;9121;50.926;5.340;2023-06-22T07:29:29;22.50;99.90
17992;DHT22;9121;50.926;5.340;2023-06-22T07:31:57;22.30;99.90
17992;DHT22;9121;50.926;5.340;2023-06-22T07:34:26;22.30;99.90
17992;DHT22;9121;50.926;5.340;2023-06-22T07:36:53;22.30;99.90
17992;DHT22;9121;50.926;5.340;2023-06-22T07:39:20;22.20;99.90
17992;DHT22;9121;50.926;5.340;2023-06-22T07:41:51;22.20;99.90
17992;DHT22;9121;50.926;5.340;2023-06-22T07:44:19;22.00;99.90
17992;DHT22;9121;50.926;5.340;2023-06-22T07:46:47;22.00;99.90
17992;DHT22;9121;50.926;5.340;2023-06-22T07:49:14;22.10;99.90
17992;DHT22;9121;50.926;5.340;2023-06-22T07:51:41;22.30;99.90
17992;DHT22;9121;50.926;5.340;2023-06-22T07:54:09;22.30;99.90
17992;DHT22;9121;50.926;5.340;2023-06-22T07:56:36;22.20;99.90
17992;DHT22;9121;50.926;5.340;2023-06-22T07:59:03;22.30;99.90
17992;DHT22;9121;50.926;5.340;2023-06-22T08:01:31;22.30;99.90
17992;DHT22;9121;50.926;5.340;2023-06-22T08:03:58;22.40;99.90
17992;DHT22;9121;50.926;5.340;2023-06-22T08:06:26;22.60;99.90
17992;DHT22;9121;50.926;5.340;2023-06-22T08:08:52;22.60;99.90
17992;DHT22;9121;50.926;5.340;2023-06-22T08:11:24;22.50;99.90
17992;DHT22;9121;50.926;5.340;2023-06-22T08:13:51;22.50;99.90
17992;DHT22;9121;50.926;5.340;2023-06-22T08:16:21;22.50;99.90
17992;DHT22;9121;50.926;5.340;2023-06-22T08:18:49;22.60;99.90
17992;DHT22;9121;50.926;5.340;2023-06-22T08:21:16;22.80;99.90
17992;DHT22;9121;50.926;5.340;2023-06-22T08:23:43;23.00;99.90
17992;DHT22;9121;50.926;5.340;2023-06-22T08:26:10;23.10;99.90
17992;DHT22;9121;50.926;5.340;2023-06-22T08:28:37;23.20;99.90
17992;DHT22;9121;50.926;5.340;2023-06-22T08:31:04;23.40;99.90
17992;DHT22;9121;50.926;5.340;2023-06-22T08:33:31;23.40;99.90
17992;DHT22;9121;50.926;5.340;2023-06-22T08:35:59;23.20;99.90
17992;DHT22;9121;50.926;5.340;2023-06-22T08:38:26;23.30;99.90
17992;DHT22;9121;50.926;5.340;2023-06-22T08:40:53;23.40;99.90
17992;DHT22;9121;50.926;5.340;2023-06-22T08:43:20;23.50;99.90
17992;DHT22;9121;50.926;5.340;2023-06-22T08:45:47;23.60;99.90
17992;DHT22;9121;50.926;5.340;2023-06-22T08:48:14;23.70;99.90
17992;DHT22;9121;50.926;5.340;2023-06-22T08:50:41;23.70;99.90
17992;DHT22;9121;50.926;5.340;2023-06-22T08:53:10;23.70;99.90
17992;DHT22;9121;50.926;5.340;2023-06-22T08:55:36;23.80;99.90
17992;DHT22;9121;50.926;5.340;2023-06-22T08:58:03;23.80;99.90
17992;DHT22;9121;50.926;5.340;2023-06-22T09:00:31;23.70;99.90
17992;DHT22;9121;50.926;5.340;2023-06-22T09:03:00;23.60;99.90
17992;DHT22;9121;50.926;5.340;2023-06-22T09:05:27;23.60;99.90
17992;DHT22;9121;50.926;5.340;2023-06-22T09:07:55;23.50;99.90
17992;DHT22;9121;50.926;5.340;2023-06-22T09:10:25;23.50;99.90
17992;DHT22;9121;50.926;5.340;2023-06-22T09:12:52;23.40;99.90
17992;DHT22;9121;50.926;5.340;2023-06-22T09:15:20;23.40;99.90
17992;DHT22;9121;50.926;5.340;2023-06-22T09:17:47;23.30;99.90
17992;DHT22;9121;50.926;5.340;2023-06-22T09:20:14;23.30;99.90
17992;DHT22;9121;50.926;5.340;2023-06-22T09:22:42;23.30;99.90
17992;DHT22;9121;50.926;5.340;2023-06-22T09:25:09;23.20;99.90
17992;DHT22;9121;50.926;5.340;2023-06-22T09:27:38;23.20;99.90
17992;DHT22;9121;50.926;5.340;2023-06-22T09:30:06;23.20;99.90
17992;DHT22;9121;50.926;5.340;2023-06-22T09:32:33;23.30;99.90
17992;DHT22;9121;50.926;5.340;2023-06-22T09:35:04;23.50;99.90
17992;DHT22;9121;50.926;5.340;2023-06-22T09:37:32;23.60;99.90
17992;DHT22;9121;50.926;5.340;2023-06-22T09:39:59;23.70;99.90
17992;DHT22;9121;50.926;5.340;2023-06-22T09:42:26;23.70;99.90
17992;DHT22;9121;50.926;5.340;2023-06-22T09:44:54;23.60;99.90
17992;DHT22;9121;50.926;5.340;2023-06-22T09:47:21;23.70;99.90
17992;DHT22;9121;50.926;5.340;2023-06-22T09:49:48;23.70;99.90
17992;DHT22;9121;50.926;5.340;2023-06-22T09:52:16;23.80;99.90
17992;DHT22;9121;50.926;5.340;2023-06-22T09:54:43;23.80;99.90
17992;DHT22;9121;50.926;5.340;2023-06-22T09:57:10;23.80;99.90
17992;DHT22;9121;50.926;5.340;2023-06-22T09:59:37;23.80;99.90
17992;DHT22;9121;50.926;5.340;2023-06-22T10:02:07;23.90;99.90
17992;DHT22;9121;50.926;5.340;2023-06-22T10:04:34;24.00;99.90
17992;DHT22;9121;50.926;5.340;2023-06-22T10:07:01;23.90;99.90
17992;DHT22;9121;50.926;5.340;2023-06-22T10:09:29;23.90;99.90
17992;DHT22;9121;50.926;5.340;2023-06-22T10:11:56;23.80;99.90
17992;DHT22;9121;50.926;5.340;2023-06-22T10:14:22;23.70;99.90
17992;DHT22;9121;50.926;5.340;2023-06-22T10:16:51;23.70;99.90
17992;DHT22;9121;50.926;5.340;2023-06-22T10:19:20;23.50;99.90
17992;DHT22;9121;50.926;5.340;2023-06-22T10:21:47;23.20;99.90
17992;DHT22;9121;50.926;5.340;2023-06-22T10:24:17;23.20;99.90
17992;DHT22;9121;50.926;5.340;2023-06-22T10:26:44;23.10;99.90
17992;DHT22;9121;50.926;5.340;2023-06-22T10:29:11;23.00;99.90
17992;DHT22;9121;50.926;5.340;2023-06-22T10:31:38;22.80;99.90
17992;DHT22;9121;50.926;5.340;2023-06-22T10:34:05;22.70;99.90
17992;DHT22;9121;50.926;5.340;2023-06-22T10:36:33;22.70;99.90
17992;DHT22;9121;50.926;5.340;2023-06-22T10:39:00;22.60;99.90
17992;DHT22;9121;50.926;5.340;2023-06-22T10:41:28;22.60;99.90
17992;DHT22;9121;50.926;5.340;2023-06-22T10:43:56;22.50;99.90
17992;DHT22;9121;50.926;5.340;2023-06-22T10:46:24;22.50;99.90
17992;DHT22;9121;50.926;5.340;2023-06-22T10:48:53;22.50;99.90
17992;DHT22;9121;50.926;5.340;2023-06-22T10:51:22;22.40;99.90
17992;DHT22;9121;50.926;5.340;2023-06-22T10:53:51;22.40;99.90
17992;DHT22;9121;50.926;5.340;2023-06-22T10:56:18;22.40;99.90
17992;DHT22;9121;50.926;5.340;2023-06-22T10:58:45;22.50;99.90
17992;DHT22;9121;50.926;5.340;2023-06-22T11:01:12;22.60;99.90
17992;DHT22;9121;50.926;5.340;2023-06-22T11:03:39;22.60;99.90
17992;DHT22;9121;50.926;5.340;2023-06-22T11:06:06;22.50;99.90
17992;DHT22;9121;50.926;5.340;2023-06-22T11:08:33;22.50;99.90
17992;DHT22;9121;50.926;5.340;2023-06-22T11:11:01;22.50;99.90
17992;DHT22;9121;50.926;5.340;2023-06-22T11:13:28;22.40;99.90
17992;DHT22;9121;50.926;5.340;2023-06-22T11:15:55;22.40;99.90
17992;DHT22;9121;50.926;5.340;2023-06-22T11:18:23;22.60;99.90
17992;DHT22;9121;50.926;5.340;2023-06-22T11:20:50;22.70;99.90
17992;DHT22;9121;50.926;5.340;2023-06-22T11:23:17;23.00;99.90
17992;DHT22;9121;50.926;5.340;2023-06-22T11:25:44;23.10;99.90
17992;DHT22;9121;50.926;5.340;2023-06-22T11:28:13;23.30;99.90
17992;DHT22;9121;50.926;5.340;2023-06-22T11:30:40;23.30;99.90
17992;DHT22;9121;50.926;5.340;2023-06-22T11:33:07;23.40;99.90
17992;DHT22;9121;50.926;5.340;2023-06-22T11:35:34;23.60;99.90
17992;DHT22;9121;50.926;5.340;2023-06-22T11:38:01;23.70;99.90
17992;DHT22;9121;50.926;5.340;2023-06-22T11:40:29;23.70;99.90
17992;DHT22;9121;50.926;5.340;2023-06-22T11:42:56;23.50;99.90
17992;DHT22;9121;50.926;5.340;2023-06-22T11:45:24;23.50;99.90
17992;DHT22;9121;50.926;5.340;2023-06-22T11:47:51;23.20;99.90
17992;DHT22;9121;50.926;5.340;2023-06-22T11:50:18;23.00;99.90
17992;DHT22;9121;50.926;5.340;2023-06-22T11:52:45;22.80;99.90
17992;DHT22;9121;50.926;5.340;2023-06-22T11:55:12;22.80;99.90
17992;DHT22;9121;50.926;5.340;2023-06-22T11:57:53;22.70;99.90
17992;DHT22;9121;50.926;5.340;2023-06-22T12:00:20;22.60;99.90
17992;DHT22;9121;50.926;5.340;2023-06-22T12:02:50;22.70;99.90
17992;DHT22;9121;50.926;5.340;2023-06-22T12:05:18;22.60;99.90
17992;DHT22;9121;50.926;5.340;2023-06-22T12:07:46;22.40;99.90
17992;DHT22;9121;50.926;5.340;2023-06-22T12:10:13;22.40;99.90
17992;DHT22;9121;50.926;5.340;2023-06-22T12:12:40;22.30;99.90
17992;DHT22;9121;50.926;5.340;2023-06-22T12:15:08;22.20;99.90
17992;DHT22;9121;50.926;5.340;2023-06-22T12:17:35;22.10;99.90
17992;DHT22;9121;50.926;5.340;2023-06-22T12:20:05;22.10;99.90
17992;DHT22;9121;50.926;5.340;2023-06-22T12:22:33;22.20;99.90
17992;DHT22;9121;50.926;5.340;2023-06-22T12:25:00;22.20;99.90
17992;DHT22;9121;50.926;5.340;2023-06-22T12:27:27;22.10;99.90
17992;DHT22;9121;50.926;5.340;2023-06-22T12:29:56;22.00;99.90
17992;DHT22;9121;50.926;5.340;2023-06-22T12:32:23;22.00;99.90
17992;DHT22;9121;50.926;5.340;2023-06-22T12:34:51;22.00;99.90
17992;DHT22;9121;50.926;5.340;2023-06-22T12:37:19;22.00;99.90
17992;DHT22;9121;50.926;5.340;2023-06-22T12:39:46;21.90;99.90
17992;DHT22;9121;50.926;5.340;2023-06-22T12:42:13;21.90;99.90
17992;DHT22;9121;50.926;5.340;2023-06-22T12:44:40;21.90;99.90
17992;DHT22;9121;50.926;5.340;2023-06-22T12:47:07;21.80;99.90
17992;DHT22;9121;50.926;5.340;2023-06-22T12:49:35;21.80;99.90
17992;DHT22;9121;50.926;5.340;2023-06-22T12:52:02;21.80;99.90
17992;DHT22;9121;50.926;5.340;2023-06-22T12:54:30;21.80;99.90
17992;DHT22;9121;50.926;5.340;2023-06-22T12:56:57;21.80;99.90
17992;DHT22;9121;50.926;5.340;2023-06-22T12:59:24;21.80;99.90
17992;DHT22;9121;50.926;5.340;2023-06-22T13:01:51;21.80;99.90
17992;DHT22;9121;50.926;5.340;2023-06-22T13:04:18;21.80;99.90
17992;DHT22;9121;50.926;5.340;2023-06-22T13:06:45;21.80;99.90
17992;DHT22;9121;50.926;5.340;2023-06-22T13:09:14;21.70;99.90
17992;DHT22;9121;50.926;5.340;2023-06-22T13:11:43;21.60;99.90
17992;DHT22;9121;50.926;5.340;2023-06-22T13:14:10;21.50;99.90
17992;DHT22;9121;50.926;5.340;2023-06-22T13:16:37;21.30;99.90
17992;DHT22;9121;50.926;5.340;2023-06-22T13:19:04;21.30;99.90
17992;DHT22;9121;50.926;5.340;2023-06-22T13:21:31;21.20;99.90
17992;DHT22;9121;50.926;5.340;2023-06-22T13:23:59;21.20;99.90
17992;DHT22;9121;50.926;5.340;2023-06-22T13:26:26;21.20;99.90
17992;DHT22;9121;50.926;5.340;2023-06-22T13:28:56;21.30;99.90
17992;DHT22;9121;50.926;5.340;2023-06-22T13:31:23;21.20;99.90
17992;DHT22;9121;50.926;5.340;2023-06-22T13:33:50;21.10;99.90
17992;DHT22;9121;50.926;5.340;2023-06-22T13:36:18;21.10;99.90
17992;DHT22;9121;50.926;5.340;2023-06-22T13:38:45;21.10;99.90
17992;DHT22;9121;50.926;5.340;2023-06-22T13:41:12;20.80;99.90
17992;DHT22;9121;50.926;5.340;2023-06-22T13:43:40;20.70;99.90
17992;DHT22;9121;50.926;5.340;2023-06-22T13:46:08;20.70;99.90
17992;DHT22;9121;50.926;5.340;2023-06-22T13:48:35;20.70;99.90
17992;DHT22;9121;50.926;5.340;2023-06-22T13:51:02;20.70;99.90
17992;DHT22;9121;50.926;5.340;2023-06-22T13:53:29;20.70;99.90
17992;DHT22;9121;50.926;5.340;2023-06-22T13:55:56;20.70;99.90
17992;DHT22;9121;50.926;5.340;2023-06-22T13:58:23;20.70;99.90
17992;DHT22;9121;50.926;5.340;2023-06-22T14:00:50;20.70;99.90
17992;DHT22;9121;50.926;5.340;2023-06-22T14:03:18;20.60;99.90
17992;DHT22;9121;50.926;5.340;2023-06-22T14:05:45;20.50;99.90
17992;DHT22;9121;50.926;5.340;2023-06-22T14:08:12;20.40;99.90
17992;DHT22;9121;50.926;5.340;2023-06-22T14:10:40;20.30;99.90
17992;DHT22;9121;50.926;5.340;2023-06-22T14:13:07;20.40;99.90
17992;DHT22;9121;50.926;5.340;2023-06-22T14:15:34;20.30;99.90
17992;DHT22;9121;50.926;5.340;2023-06-22T14:18:01;20.30;99.90
17992;DHT22;9121;50.926;5.340;2023-06-22T14:20:29;20.40;99.90
17992;DHT22;9121;50.926;5.340;2023-06-22T14:22:56;20.30;99.90
17992;DHT22;9121;50.926;5.340;2023-06-22T14:25:23;20.30;99.90
17992;DHT22;9121;50.926;5.340;2023-06-22T14:27:50;20.20;99.90
17992;DHT22;9121;50.926;5.340;2023-06-22T14:30:17;20.10;99.90
17992;DHT22;9121;50.926;5.340;2023-06-22T14:32:44;20.10;99.90
17992;DHT22;9121;50.926;5.340;2023-06-22T14:35:11;20.00;99.90
17992;DHT22;9121;50.926;5.340;2023-06-22T14:37:40;19.90;99.90
17992;DHT22;9121;50.926;5.340;2023-06-22T14:40:08;19.80;99.90
17992;DHT22;9121;50.926;5.340;2023-06-22T14:42:35;19.70;99.90
17992;DHT22;9121;50.926;5.340;2023-06-22T14:45:02;19.70;99.90
17992;DHT22;9121;50.926;5.340;2023-06-22T14:47:29;19.70;99.90
17992;DHT22;9121;50.926;5.340;2023-06-22T14:49:56;19.70;99.90
17992;DHT22;9121;50.926;5.340;2023-06-22T14:52:23;19.80;99.90
17992;DHT22;9121;50.926;5.340;2023-06-22T14:54:52;19.70;99.90
17992;DHT22;9121;50.926;5.340;2023-06-22T14:57:19;19.70;99.90
17992;DHT22;9121;50.926;5.340;2023-06-22T14:59:48;19.70;99.90
17992;DHT22;9121;50.926;5.340;2023-06-22T15:02:16;19.70;99.90
17992;DHT22;9121;50.926;5.340;2023-06-22T15:04:43;19.60;99.90
17992;DHT22;9121;50.926;5.340;2023-06-22T15:07:13;19.70;99.90
17992;DHT22;9121;50.926;5.340;2023-06-22T15:09:40;19.70;99.90
17992;DHT22;9121;50.926;5.340;2023-06-22T15:12:09;19.70;99.90
17992;DHT22;9121;50.926;5.340;2023-06-22T15:14:38;19.70;99.90
17992;DHT22;9121;50.926;5.340;2023-06-22T15:17:05;19.80;99.90
17992;DHT22;9121;50.926;5.340;2023-06-22T15:19:34;19.50;99.90
17992;DHT22;9121;50.926;5.340;2023-06-22T15:22:02;19.40;99.90
17992;DHT22;9121;50.926;5.340;2023-06-22T15:24:29;19.30;99.90
17992;DHT22;9121;50.926;5.340;2023-06-22T15:26:56;19.20;99.90
17992;DHT22;9121;50.926;5.340;2023-06-22T15:29:25;19.30;99.90
17992;DHT22;9121;50.926;5.340;2023-06-22T15:31:52;19.30;99.90
17992;DHT22;9121;50.926;5.340;2023-06-22T15:34:19;19.20;99.90
17992;DHT22;9121;50.926;5.340;2023-06-22T15:36:46;19.20;99.90
17992;DHT22;9121;50.926;5.340;2023-06-22T15:39:13;19.30;99.90
17992;DHT22;9121;50.926;5.340;2023-06-22T15:41:40;19.30;99.90
17992;DHT22;9121;50.926;5.340;2023-06-22T15:44:08;19.30;99.90
17992;DHT22;9121;50.926;5.340;2023-06-22T15:46:36;19.30;99.90
17992;DHT22;9121;50.926;5.340;2023-06-22T15:49:03;19.30;99.90